MSC Bremen — A8LK7 — position and weather

sailwx.info

Track history (hours):
 
Tides and Currents Weather Stations Pressure Air Temp Water Temp Dewpoint Dewpoint Depression Visibility Wind Speed Wind Dir Waves Ship Positions

MSC Bremen

Last reported at 2015-Apr-22 23:19 UTC. Time now 2015-Apr-28 15:57 UTC.
Position S 13°04' W 038°17'.

Length 294 m; ; draft 13.7 m.

Type: Ship (hazmat cat A). MMSI: 636091270.

Date/timePositionNaut miles runAvg speedWind from/ knotsBaromVisibWave heightAir tempDewpointWater temp
2015-Apr-22 23:19S 13°04' W 038°17'1417.8
2015-Apr-22 22:33S 13°07' W 038°30'10 9.9
2015-Apr-22 21:33S 12°57' W 038°32'1 1.4
2015-Apr-22 20:33S 12°58' W 038°31'0 0.0
2015-Apr-22 19:33S 12°58' W 038°31'0 0.0
2015-Apr-22 18:33S 12°58' W 038°31'0 0.0
2015-Apr-22 17:33S 12°58' W 038°31'0 0.0
2015-Apr-22 16:33S 12°58' W 038°31'0 0.0
2015-Apr-22 15:33S 12°58' W 038°31'0 0.0
2015-Apr-22 14:33S 12°58' W 038°31'0 0.4
2015-Apr-22 13:33S 12°57' W 038°31'5 4.9
2015-Apr-22 12:33S 13°01' W 038°34'9 9.4
2015-Apr-22 11:33S 13°10' W 038°34'64416.5
2015-Apr-20 20:24S 23°18' W 042°22'1618.8
2015-Apr-20 19:33S 23°23' W 042°38'17219.1
2015-Apr-20 10:33S 24°18' W 045°36'1919.1
2015-Apr-20 09:33S 24°22' W 045°56'1817.7
2015-Apr-20 08:33S 24°20' W 046°15'1716.9
2015-Apr-20 07:33S 24°04' W 046°22'8 8.2
2015-Apr-20 06:33S 23°56' W 046°19'2 2.4
2015-Apr-20 05:32S 23°55' W 046°21'0 0.0
2015-Apr-20 04:32S 23°55' W 046°21'0 0.0
2015-Apr-20 03:33S 23°55' W 046°21'0 0.0
2015-Apr-20 02:32S 23°55' W 046°21'0 0.0
2015-Apr-20 01:32S 23°55' W 046°21'0 0.0
2015-Apr-20 00:29S 23°55' W 046°21'0 0.0
2015-Apr-19 23:32S 23°55' W 046°21'0 0.0
2015-Apr-19 22:33S 23°55' W 046°21'0 0.0
2015-Apr-19 21:32S 23°55' W 046°21'0 0.0
2015-Apr-19 20:26S 23°55' W 046°21'0 0.0
2015-Apr-19 19:33S 23°55' W 046°21'0 0.0
2015-Apr-19 18:32S 23°55' W 046°21'0 0.0
2015-Apr-19 17:32S 23°55' W 046°21'0 0.0
2015-Apr-19 16:29S 23°55' W 046°21'0 0.0
2015-Apr-19 15:33S 23°55' W 046°21'0 0.0
2015-Apr-19 14:32S 23°55' W 046°21'0 0.0
2015-Apr-19 13:32S 23°55' W 046°21'0 0.1
2015-Apr-19 12:34S 23°55' W 046°21'5 4.7
2015-Apr-19 11:34S 23°60' W 046°20'10 9.9
2015-Apr-19 10:34S 24°10' W 046°21'2 1.8
2015-Apr-19 09:33S 24°11' W 046°20'0 0.0
2015-Apr-19 08:33S 24°11' W 046°20'0 0.0
2015-Apr-19 07:33S 24°11' W 046°20'0 0.0
2015-Apr-19 06:33S 24°11' W 046°20'0 0.0
2015-Apr-19 05:33S 24°11' W 046°20'0 0.0
2015-Apr-19 04:24S 24°11' W 046°20'0 0.0
2015-Apr-19 03:15S 24°11' W 046°20'0 0.0
2015-Apr-19 02:33S 24°11' W 046°20'0 0.0
2015-Apr-19 01:33S 24°11' W 046°20'0 0.0
2015-Apr-19 00:33S 24°11' W 046°20'0 0.0
2015-Apr-18 23:33S 24°11' W 046°20'0 0.0
2015-Apr-18 22:24S 24°11' W 046°20'0 0.0
2015-Apr-18 21:33S 24°11' W 046°20'0 0.0
2015-Apr-18 20:30S 24°11' W 046°20'0 0.0
2015-Apr-18 19:30S 24°11' W 046°20'0 0.0
2015-Apr-18 18:30S 24°11' W 046°20'0 0.0
2015-Apr-18 17:33S 24°11' W 046°20'0 0.0
2015-Apr-18 16:27S 24°11' W 046°20'0 0.0
2015-Apr-18 15:33S 24°11' W 046°20'0 0.0
2015-Apr-18 14:33S 24°11' W 046°19'0 0.0
2015-Apr-18 13:33S 24°11' W 046°19'0 0.0
2015-Apr-18 12:33S 24°11' W 046°20'0 0.1
2015-Apr-18 11:33S 24°11' W 046°20'0 0.0
2015-Apr-18 10:33S 24°11' W 046°20'0 0.0
2015-Apr-18 09:33S 24°11' W 046°20'0 0.0
2015-Apr-18 08:33S 24°11' W 046°20'0 0.0
2015-Apr-18 07:30S 24°11' W 046°20'0 0.0
2015-Apr-18 06:33S 24°11' W 046°20'0 0.0
2015-Apr-18 05:33S 24°11' W 046°20'0 0.0
2015-Apr-18 04:33S 24°11' W 046°20'0 0.0
2015-Apr-18 03:30S 24°11' W 046°20'0 0.0
2015-Apr-18 02:33S 24°11' W 046°20'0 0.0
2015-Apr-18 01:33S 24°11' W 046°20'0 0.0
2015-Apr-18 00:27S 24°11' W 046°20'0 0.0
2015-Apr-17 23:33S 24°11' W 046°20'0 0.0
2015-Apr-17 22:33S 24°11' W 046°20'0 0.0
2015-Apr-17 21:33S 24°11' W 046°20'0 0.0
2015-Apr-17 20:24S 24°11' W 046°20'0 0.0
2015-Apr-17 19:30S 24°11' W 046°20'0 0.0
2015-Apr-17 18:30S 24°11' W 046°20'0 0.0
2015-Apr-17 17:33S 24°11' W 046°20'0 0.0
2015-Apr-17 16:33S 24°11' W 046°19'0 0.1
2015-Apr-17 15:33S 24°11' W 046°19'0 0.0
2015-Apr-17 14:33S 24°11' W 046°19'0 0.0
2015-Apr-17 13:30S 24°11' W 046°19'0 0.1
2015-Apr-17 12:33S 24°11' W 046°19'0 0.0
2015-Apr-17 11:27S 24°11' W 046°19'0 0.0
2015-Apr-17 10:27S 24°11' W 046°19'0 0.0
2015-Apr-17 09:30S 24°11' W 046°19'0 0.0
2015-Apr-17 08:33S 24°11' W 046°19'0 0.0
2015-Apr-17 07:33S 24°11' W 046°19'0 0.0
2015-Apr-17 06:33S 24°11' W 046°19'0 0.1
2015-Apr-17 05:30S 24°11' W 046°19'0 0.1
2015-Apr-17 04:33S 24°11' W 046°19'0 0.0
2015-Apr-17 03:30S 24°11' W 046°19'0 0.0
2015-Apr-17 02:33S 24°11' W 046°19'0 0.0
2015-Apr-17 01:33S 24°11' W 046°19'3 2.7
2015-Apr-17 00:33S 24°12' W 046°17'8 8.4
2015-Apr-16 23:34S 24°18' W 046°23'1515.3
2015-Apr-16 22:33S 24°31' W 046°31'181 4.0
2015-Apr-15 01:08S 26°59' W 048°28'2614.4
2015-Apr-14 23:21S 27°19' W 048°10'1315.7
2015-Apr-14 22:33S 27°31' W 048°10'1515.3
2015-Apr-14 21:32S 27°47' W 048°11'1614.9
2015-Apr-14 20:30S 28°02' W 048°13'  
Track history (hours):
 
Tides and Currents Weather Stations Pressure Air Temp Water Temp Dewpoint Dewpoint Depression Visibility Wind Speed Wind Dir Waves Ship Positions

MSC Bremen

Last reported at 2015-Apr-22 23:19 UTC. Time now 2015-Apr-28 15:57 UTC.
Position S 13°04' W 038°17'.

Length 294 m; ; draft 13.7 m.

Type: Ship (hazmat cat A). MMSI: 636091270.

Date/timePositionNaut miles runAvg speedWind from/ knotsBaromVisibWave heightAir tempDewpointWater temp
2015-Apr-22 23:19S 13°04' W 038°17'1417.8
2015-Apr-22 22:33S 13°07' W 038°30'10 9.9
2015-Apr-22 21:33S 12°57' W 038°32'1 1.4
2015-Apr-22 20:33S 12°58' W 038°31'0 0.0
2015-Apr-22 19:33S 12°58' W 038°31'0 0.0
2015-Apr-22 18:33S 12°58' W 038°31'0 0.0
2015-Apr-22 17:33S 12°58' W 038°31'0 0.0
2015-Apr-22 16:33S 12°58' W 038°31'0 0.0
2015-Apr-22 15:33S 12°58' W 038°31'0 0.0
2015-Apr-22 14:33S 12°58' W 038°31'0 0.4
2015-Apr-22 13:33S 12°57' W 038°31'5 4.9
2015-Apr-22 12:33S 13°01' W 038°34'9 9.4
2015-Apr-22 11:33S 13°10' W 038°34'64416.5
2015-Apr-20 20:24S 23°18' W 042°22'1618.8
2015-Apr-20 19:33S 23°23' W 042°38'17219.1
2015-Apr-20 10:33S 24°18' W 045°36'1919.1
2015-Apr-20 09:33S 24°22' W 045°56'1817.7
2015-Apr-20 08:33S 24°20' W 046°15'1716.9
2015-Apr-20 07:33S 24°04' W 046°22'8 8.2
2015-Apr-20 06:33S 23°56' W 046°19'2 2.4
2015-Apr-20 05:32S 23°55' W 046°21'0 0.0
2015-Apr-20 04:32S 23°55' W 046°21'0 0.0
2015-Apr-20 03:33S 23°55' W 046°21'0 0.0
2015-Apr-20 02:32S 23°55' W 046°21'0 0.0
2015-Apr-20 01:32S 23°55' W 046°21'0 0.0
2015-Apr-20 00:29S 23°55' W 046°21'0 0.0
2015-Apr-19 23:32S 23°55' W 046°21'0 0.0
2015-Apr-19 22:33S 23°55' W 046°21'0 0.0
2015-Apr-19 21:32S 23°55' W 046°21'0 0.0
2015-Apr-19 20:26S 23°55' W 046°21'0 0.0
2015-Apr-19 19:33S 23°55' W 046°21'0 0.0
2015-Apr-19 18:32S 23°55' W 046°21'0 0.0
2015-Apr-19 17:32S 23°55' W 046°21'0 0.0
2015-Apr-19 16:29S 23°55' W 046°21'0 0.0
2015-Apr-19 15:33S 23°55' W 046°21'0 0.0
2015-Apr-19 14:32S 23°55' W 046°21'0 0.0
2015-Apr-19 13:32S 23°55' W 046°21'0 0.1
2015-Apr-19 12:34S 23°55' W 046°21'5 4.7
2015-Apr-19 11:34S 23°60' W 046°20'10 9.9
2015-Apr-19 10:34S 24°10' W 046°21'2 1.8
2015-Apr-19 09:33S 24°11' W 046°20'0 0.0
2015-Apr-19 08:33S 24°11' W 046°20'0 0.0
2015-Apr-19 07:33S 24°11' W 046°20'0 0.0
2015-Apr-19 06:33S 24°11' W 046°20'0 0.0
2015-Apr-19 05:33S 24°11' W 046°20'0 0.0
2015-Apr-19 04:24S 24°11' W 046°20'0 0.0
2015-Apr-19 03:15S 24°11' W 046°20'0 0.0
2015-Apr-19 02:33S 24°11' W 046°20'0 0.0
2015-Apr-19 01:33S 24°11' W 046°20'0 0.0
2015-Apr-19 00:33S 24°11' W 046°20'0 0.0
2015-Apr-18 23:33S 24°11' W 046°20'0 0.0
2015-Apr-18 22:24S 24°11' W 046°20'0 0.0
2015-Apr-18 21:33S 24°11' W 046°20'0 0.0
2015-Apr-18 20:30S 24°11' W 046°20'0 0.0
2015-Apr-18 19:30S 24°11' W 046°20'0 0.0
2015-Apr-18 18:30S 24°11' W 046°20'0 0.0
2015-Apr-18 17:33S 24°11' W 046°20'0 0.0
2015-Apr-18 16:27S 24°11' W 046°20'0 0.0
2015-Apr-18 15:33S 24°11' W 046°20'0 0.0
2015-Apr-18 14:33S 24°11' W 046°19'0 0.0
2015-Apr-18 13:33S 24°11' W 046°19'0 0.0
2015-Apr-18 12:33S 24°11' W 046°20'0 0.1
2015-Apr-18 11:33S 24°11' W 046°20'0 0.0
2015-Apr-18 10:33S 24°11' W 046°20'0 0.0
2015-Apr-18 09:33S 24°11' W 046°20'0 0.0
2015-Apr-18 08:33S 24°11' W 046°20'0 0.0
2015-Apr-18 07:30S 24°11' W 046°20'0 0.0
2015-Apr-18 06:33S 24°11' W 046°20'0 0.0
2015-Apr-18 05:33S 24°11' W 046°20'0 0.0
2015-Apr-18 04:33S 24°11' W 046°20'0 0.0
2015-Apr-18 03:30S 24°11' W 046°20'0 0.0
2015-Apr-18 02:33S 24°11' W 046°20'0 0.0
2015-Apr-18 01:33S 24°11' W 046°20'0 0.0
2015-Apr-18 00:27S 24°11' W 046°20'0 0.0
2015-Apr-17 23:33S 24°11' W 046°20'0 0.0
2015-Apr-17 22:33S 24°11' W 046°20'0 0.0
2015-Apr-17 21:33S 24°11' W 046°20'0 0.0
2015-Apr-17 20:24S 24°11' W 046°20'0 0.0
2015-Apr-17 19:30S 24°11' W 046°20'0 0.0
2015-Apr-17 18:30S 24°11' W 046°20'0 0.0
2015-Apr-17 17:33S 24°11' W 046°20'0 0.0
2015-Apr-17 16:33S 24°11' W 046°19'0 0.1
2015-Apr-17 15:33S 24°11' W 046°19'0 0.0
2015-Apr-17 14:33S 24°11' W 046°19'0 0.0
2015-Apr-17 13:30S 24°11' W 046°19'0 0.1
2015-Apr-17 12:33S 24°11' W 046°19'0 0.0
2015-Apr-17 11:27S 24°11' W 046°19'0 0.0
2015-Apr-17 10:27S 24°11' W 046°19'0 0.0
2015-Apr-17 09:30S 24°11' W 046°19'0 0.0
2015-Apr-17 08:33S 24°11' W 046°19'0 0.0
2015-Apr-17 07:33S 24°11' W 046°19'0 0.0
2015-Apr-17 06:33S 24°11' W 046°19'0 0.1
2015-Apr-17 05:30S 24°11' W 046°19'0 0.1
2015-Apr-17 04:33S 24°11' W 046°19'0 0.0
2015-Apr-17 03:30S 24°11' W 046°19'0 0.0
2015-Apr-17 02:33S 24°11' W 046°19'0 0.0
2015-Apr-17 01:33S 24°11' W 046°19'3 2.7
2015-Apr-17 00:33S 24°12' W 046°17'8 8.4
2015-Apr-16 23:34S 24°18' W 046°23'1515.3
2015-Apr-16 22:33S 24°31' W 046°31'181 4.0
2015-Apr-15 01:08S 26°59' W 048°28'2614.4
2015-Apr-14 23:21S 27°19' W 048°10'1315.7
2015-Apr-14 22:33S 27°31' W 048°10'1515.3
2015-Apr-14 21:32S 27°47' W 048°11'1614.9
2015-Apr-14 20:30S 28°02' W 048°13'  

Dump ship's entire track history